Harare, Zimbabwe
Current Conditions -  °F | °C
As of 9:00 AM on Monday 24 Nov 2014 (Local Time) from FVHA Reporting Station
Clear Clear  
Wind Chill: 77°   Ceiling: Unl
Heat Index: 78°   Visibility: 6mi
Dew Point: 52°   Wind: 14mph
Humidity: 41%   Direction: 60°ENE
Pressure: 30.21"   Gusts: NA
Location:  17.82°S, 31.05°E
Report Text: FVHA 240700Z 06012KT CAVOK 25/11 Q1023 NOSIG
Loading
Personal Weather Stations






























Interactive Weather Map New forecast layout! Learn more

10-Day Weather Forecast

Advertisements
Track Severe Weather on mobile